Time;durP1;ratioP1;P1;durP2;ratioP2;P2;SDS_P1;SDS_P2;PMS_P1;PMS_P2;Temp;Humidity;BMP_temperature;BMP_pressure;BME280_temperature;BME280_humidity;BME280_pressure;Samples;Min_cycle;Max_cycle;Signal;HPM_P1;HPM_P2
2023/10/05 00:08:05;;;;;;;11.20;6.30;;;;;;;13.93;100.00;100768.48;667725;1263;139054;-78
2023/10/05 00:23:11;;;;;;;10.90;7.10;;;;;;;13.93;100.00;100763.34;668041;1264;138852;-78
2023/10/05 00:38:16;;;;;;;13.50;7.30;;;;;;;13.90;100.00;100753.96;668192;1264;139221;-78
2023/10/05 00:53:21;;;;;;;13.60;7.80;;;;;;;13.91;100.00;100735.92;668960;1264;138836;-78
2023/10/05 01:08:24;;;;;;;13.90;6.80;;;;;;;13.90;100.00;100722.83;668148;1261;139327;-77
2023/10/05 01:23:37;;;;;;;14.80;7.50;;;;;;;13.99;100.00;100719.83;668468;1264;139802;-77
2023/10/05 01:38:41;;;;;;;17.20;8.40;;;;;;;13.89;100.00;100717.86;670941;1264;140057;-79
2023/10/05 01:53:45;;;;;;;14.60;8.30;;;;;;;13.68;100.00;100702.28;672559;1264;140031;-77
2023/10/05 02:08:49;;;;;;;18.00;10.30;;;;;;;13.67;100.00;100676.53;671044;1261;139388;-79
2023/10/05 02:23:57;;;;;;;21.30;9.50;;;;;;;13.50;100.00;100658.91;672195;1264;139946;-79
2023/10/05 02:39:01;;;;;;;18.20;9.20;;;;;;;13.69;100.00;100657.11;669325;1260;140072;-79
2023/10/05 02:54:10;;;;;;;19.60;8.80;;;;;;;13.75;100.00;100647.43;672523;1261;139598;-79
2023/10/05 03:09:13;;;;;;;19.50;9.20;;;;;;;13.60;100.00;100646.60;671550;1264;139622;-79
2023/10/05 03:24:19;;;;;;;16.40;9.00;;;;;;;13.53;100.00;100629.67;669225;1263;139199;-79
2023/10/05 03:39:23;;;;;;;25.20;9.50;;;;;;;13.47;100.00;100604.89;670018;1263;138493;-79
2023/10/05 03:54:27;;;;;;;24.70;10.30;;;;;;;13.63;100.00;100583.86;672192;1262;139521;-79
2023/10/05 04:09:31;;;;;;;19.10;10.50;;;;;;;13.66;100.00;100565.14;668176;1263;139209;-79
2023/10/05 04:24:36;;;;;;;69.40;42.30;;;;;;;13.77;100.00;100544.79;672558;1263;140148;-79
2023/10/05 04:39:40;;;;;;;20.10;12.10;;;;;;;13.58;100.00;100529.08;668641;1261;139733;-79
2023/10/05 04:54:44;;;;;;;25.20;12.10;;;;;;;13.51;100.00;100526.02;670699;1264;140135;-78
2023/10/05 05:09:50;;;;;;;36.00;17.00;;;;;;;13.56;100.00;100519.74;667838;1264;139051;-78
2023/10/05 05:24:54;;;;;;;27.90;12.50;;;;;;;13.65;100.00;100502.72;667572;1262;140269;-79
2023/10/05 05:40:09;;;;;;;25.20;10.80;;;;;;;13.71;100.00;100487.39;668350;1264;140057;-79
2023/10/05 05:55:17;;;;;;;29.10;12.20;;;;;;;13.82;100.00;100477.27;669324;1264;140481;-79
2023/10/05 06:10:28;;;;;;;37.40;15.80;;;;;;;14.03;100.00;100472.77;669954;1264;140270;-78
2023/10/05 06:25:32;;;;;;;38.80;18.30;;;;;;;13.98;100.00;100460.27;674066;1264;139211;-77
2023/10/05 06:40:36;;;;;;;26.10;11.20;;;;;;;14.27;100.00;100450.00;667716;1263;139813;-78
2023/10/05 06:55:39;;;;;;;18.20;8.90;;;;;;;14.77;100.00;100455.84;667574;1264;140790;-79
2023/10/05 07:10:43;;;;;;;19.60;10.30;;;;;;;14.87;100.00;100448.29;670149;1271;140831;-78
2023/10/05 07:25:46;;;;;;;17.10;8.70;;;;;;;15.18;99.61;100432.92;675114;1263;140534;-77
2023/10/05 07:40:50;;;;;;;20.30;8.10;;;;;;;15.16;98.80;100420.81;668860;1264;140443;-78
2023/10/05 07:55:53;;;;;;;14.10;8.70;;;;;;;15.07;98.29;100417.35;673734;1264;140165;-78
2023/10/05 08:10:57;;;;;;;28.00;13.00;;;;;;;15.46;97.37;100411.20;674235;1266;139254;-78
2023/10/05 08:26:02;;;;;;;22.20;13.50;;;;;;;15.57;95.93;100403.84;680461;1260;140594;-77
2023/10/05 08:41:11;;;;;;;15.00;8.80;;;;;;;15.27;96.80;100375.85;672267;1259;140248;-78
2023/10/05 08:56:16;;;;;;;18.00;8.30;;;;;;;15.73;96.24;100366.02;670102;1259;141216;-78
2023/10/05 09:11:32;;;;;;;20.00;6.70;;;;;;;16.08;93.13;100379.52;676435;1264;139816;-78
2023/10/05 09:26:39;;;;;;;22.60;6.40;;;;;;;16.26;91.13;100376.50;670040;1263;140629;-79
2023/10/05 09:41:44;;;;;;;10.10;5.20;;;;;;;16.35;89.62;100361.34;672271;1263;139599;-77
2023/10/05 09:56:47;;;;;;;11.40;4.50;;;;;;;16.33;89.72;100377.77;669466;1262;140743;-77
2023/10/05 10:11:51;;;;;;;58.70;24.00;;;;;;;16.34;89.70;100371.14;671811;1265;140902;-78
2023/10/05 10:27:07;;;;;;;10.40;5.50;;;;;;;16.27;89.91;100380.73;670902;1271;140706;-77
2023/10/05 10:42:19;;;;;;;12.30;4.90;;;;;;;16.27;90.91;100369.94;670369;1262;140313;-79
2023/10/05 10:57:23;;;;;;;10.80;5.60;;;;;;;16.26;93.05;100355.59;673434;1273;139899;-77
2023/10/05 11:12:26;;;;;;;67.70;24.80;;;;;;;16.19;96.00;100347.81;670097;1263;139922;-78
2023/10/05 11:27:36;;;;;;;11.10;6.10;;;;;;;16.14;96.81;100357.31;674636;1278;140683;-79
2023/10/05 11:42:41;;;;;;;16.40;6.00;;;;;;;16.12;97.78;100355.05;669667;1263;139696;-78
2023/10/05 11:57:44;;;;;;;12.70;4.80;;;;;;;16.31;96.96;100355.60;677122;1262;139653;-77
2023/10/05 12:12:50;;;;;;;16.90;5.80;;;;;;;16.28;96.71;100357.54;671331;1262;139470;-77
2023/10/05 12:27:53;;;;;;;14.00;5.80;;;;;;;16.66;95.95;100344.98;670999;1273;139015;-78
2023/10/05 12:42:56;;;;;;;14.30;5.50;;;;;;;17.50;92.30;100362.02;669049;1263;140143;-79
2023/10/05 12:58:19;;;;;;;14.70;5.40;;;;;;;17.50;90.87;100361.20;673702;1274;140280;-76
2023/10/05 13:13:25;;;;;;;11.30;4.50;;;;;;;17.96;88.25;100363.04;673750;1264;140438;-77
2023/10/05 13:28:29;;;;;;;10.10;4.30;;;;;;;17.86;86.30;100350.91;672170;1263;140283;-76
2023/10/05 13:43:34;;;;;;;11.40;4.60;;;;;;;17.79;86.52;100350.30;669178;1271;139562;-77
2023/10/05 13:58:41;;;;;;;7.90;4.30;;;;;;;17.92;86.73;100365.71;671070;1279;139332;-78
2023/10/05 14:13:44;;;;;;;8.70;4.70;;;;;;;17.97;85.99;100365.40;669640;1263;138991;-78
2023/10/05 14:28:47;;;;;;;10.70;4.60;;;;;;;17.56;87.72;100361.70;671679;1263;139408;-77
2023/10/05 14:43:52;;;;;;;8.40;4.20;;;;;;;17.50;86.80;100367.98;672368;1262;140844;-78
2023/10/05 14:58:55;;;;;;;9.50;4.50;;;;;;;17.44;85.96;100368.85;669296;1270;138945;-77
2023/10/05 15:13:58;;;;;;;14.00;8.50;;;;;;;17.54;85.18;100378.98;672549;1260;139719;-78
2023/10/05 15:29:02;;;;;;;29.80;15.10;;;;;;;17.47;83.58;100385.64;668842;1263;140207;-78
2023/10/05 15:44:07;;;;;;;8.80;4.70;;;;;;;17.19;83.84;100394.85;668225;1264;139295;-77
2023/10/05 15:59:11;;;;;;;20.80;9.20;;;;;;;16.81;86.31;100411.10;668736;1264;139771;-77
2023/10/05 16:14:14;;;;;;;16.50;9.70;;;;;;;16.47;89.94;100435.33;670069;1260;139486;-78
2023/10/05 16:29:18;;;;;;;13.80;6.50;;;;;;;16.48;91.63;100452.40;672101;1263;139042;-77
2023/10/05 16:44:21;;;;;;;24.20;13.60;;;;;;;16.47;91.72;100473.70;668429;1273;139555;-78
2023/10/05 16:59:24;;;;;;;25.20;12.90;;;;;;;16.38;91.46;100504.45;668608;1263;139114;-78
2023/10/05 17:14:28;;;;;;;85.30;37.40;;;;;;;16.28;89.93;100523.36;668267;1263;139178;-77
2023/10/05 17:29:31;;;;;;;29.30;16.20;;;;;;;16.11;89.21;100544.46;668913;1274;140187;-78
2023/10/05 17:44:39;;;;;;;31.40;11.60;;;;;;;16.07;87.03;100574.70;669704;1260;139041;-78
2023/10/05 17:59:42;;;;;;;19.90;8.40;;;;;;;16.09;84.79;100582.45;668912;1260;139217;-79
2023/10/05 18:14:46;;;;;;;211.90;77.60;;;;;;;16.00;84.37;100594.77;670038;1263;140063;-78
2023/10/05 18:29:49;;;;;;;101.80;41.70;;;;;;;15.95;84.37;100612.59;670029;1262;139557;-78
2023/10/05 18:44:53;;;;;;;14.30;5.70;;;;;;;15.74;85.95;100609.70;668560;1263;139123;-79
2023/10/05 19:00:00;;;;;;;15.40;7.40;;;;;;;15.67;87.41;100631.04;668506;1258;139077;-78
2023/10/05 19:15:05;;;;;;;15.80;4.50;;;;;;;15.70;86.68;100642.39;668368;1275;138915;-78
2023/10/05 19:30:13;;;;;;;11.00;3.20;;;;;;;15.69;86.48;100649.38;668410;1259;139038;-78
2023/10/05 19:45:16;;;;;;;8.80;3.20;;;;;;;15.76;86.16;100657.25;670596;1261;139032;-78
2023/10/05 20:00:20;;;;;;;10.90;4.10;;;;;;;15.77;86.88;100679.94;668155;1263;140148;-77
2023/10/05 20:15:23;;;;;;;12.00;3.50;;;;;;;15.63;88.53;100703.38;670253;1263;139600;-77
2023/10/05 20:30:29;;;;;;;8.80;2.20;;;;;;;15.59;89.24;100723.22;668454;1263;139292;-78
2023/10/05 20:45:37;;;;;;;5.50;2.00;;;;;;;15.29;91.87;100741.02;668533;1262;138488;-78
2023/10/05 21:00:41;;;;;;;8.70;2.90;;;;;;;15.12;92.91;100750.84;669249;1262;138916;-79
2023/10/05 21:15:45;;;;;;;7.60;2.30;;;;;;;15.02;93.98;100755.19;670324;1263;138617;-78
2023/10/05 21:30:49;;;;;;;5.00;3.10;;;;;;;14.91;93.05;100765.44;669075;1274;139457;-77
2023/10/05 21:45:52;;;;;;;7.10;2.40;;;;;;;14.65;93.19;100781.63;667794;1260;138506;-78
2023/10/05 22:00:55;;;;;;;3.70;2.10;;;;;;;14.47;93.59;100796.77;668165;1262;138864;-77
2023/10/05 22:15:59;;;;;;;5.10;1.90;;;;;;;14.29;94.14;100806.75;668383;1262;139128;-77
2023/10/05 22:31:02;;;;;;;16.00;5.50;;;;;;;14.20;95.20;100815.13;667847;1263;139072;-77
2023/10/05 22:46:16;;;;;;;7.30;3.30;;;;;;;14.04;95.35;100831.41;668479;1262;139086;-77
2023/10/05 23:01:19;;;;;;;5.70;1.60;;;;;;;13.78;96.42;100844.95;668299;1263;138799;-76
2023/10/05 23:16:23;;;;;;;5.10;2.10;;;;;;;13.55;97.73;100858.28;668627;1263;141220;-78
2023/10/05 23:31:27;;;;;;;6.90;2.10;;;;;;;13.37;99.15;100877.26;668000;1259;138945;-77
2023/10/05 23:46:31;;;;;;;5.30;2.30;;;;;;;13.21;99.86;100896.92;668516;1259;139061;-78
